createdAt,value
2022-10-24T00:00:14.578Z,1003.17
2022-10-24T00:01:14.449Z,1003.22
2022-10-24T00:02:14.736Z,1003.12
2022-10-24T00:04:14.528Z,1003.10
2022-10-24T00:05:14.561Z,1003.17
2022-10-24T00:06:14.942Z,1003.17
2022-10-24T00:07:14.620Z,1003.19
2022-10-24T00:08:14.660Z,1003.17
2022-10-24T00:09:14.688Z,1003.18
2022-10-24T00:10:14.724Z,1003.13
2022-10-24T00:11:14.759Z,1003.10
2022-10-24T00:12:15.375Z,1003.15
2022-10-24T00:14:14.864Z,1003.23
2022-10-24T00:15:14.901Z,1003.19
2022-10-24T00:17:14.944Z,1003.20
2022-10-24T00:20:15.345Z,1003.11
2022-10-24T00:22:15.097Z,1003.13
2022-10-24T00:23:15.257Z,1003.08
2022-10-24T00:24:15.238Z,1003.08
2022-10-24T00:25:15.191Z,1003.06
2022-10-24T00:26:15.473Z,1003.04
2022-10-24T00:27:15.261Z,1003.00
2022-10-24T00:28:15.289Z,1003.03
2022-10-24T00:29:15.333Z,1002.99
2022-10-24T00:30:15.350Z,1002.96
2022-10-24T00:31:15.404Z,1002.97
2022-10-24T00:32:15.722Z,1003.01
2022-10-24T00:33:15.925Z,1002.96
2022-10-24T00:34:15.485Z,1002.96
2022-10-24T00:35:15.508Z,1003.01
2022-10-24T00:36:15.540Z,1002.98
2022-10-24T00:37:15.635Z,1003.02
2022-10-24T00:38:15.850Z,1002.98
2022-10-24T00:39:15.635Z,1002.99
2022-10-24T00:40:15.665Z,1002.97
2022-10-24T00:41:16.058Z,1003.00
2022-10-24T00:42:15.728Z,1003.02
2022-10-24T00:43:15.795Z,1003.04
2022-10-24T00:44:15.795Z,1003.01
2022-10-24T00:45:16.071Z,1003.04
2022-10-24T00:46:15.856Z,1003.06
2022-10-24T00:47:15.911Z,1003.07
2022-10-24T00:48:15.916Z,1003.05
2022-10-24T00:49:16.017Z,1003.05
2022-10-24T00:50:15.982Z,1003.11
2022-10-24T00:51:16.021Z,1003.06
2022-10-24T00:52:16.293Z,1003.08
2022-10-24T00:53:16.076Z,1003.11
2022-10-24T00:54:16.111Z,1003.12
2022-10-24T00:55:16.144Z,1003.10
2022-10-24T00:56:16.468Z,1003.11
2022-10-24T00:57:16.201Z,1003.06
2022-10-24T00:58:16.252Z,1003.04
2022-10-24T00:59:16.774Z,1002.98
2022-10-24T01:00:16.450Z,1002.97
2022-10-24T01:01:16.456Z,1002.96
2022-10-24T01:02:16.416Z,1002.94
2022-10-24T01:03:16.416Z,1002.99
2022-10-24T01:04:16.487Z,1002.98
2022-10-24T01:05:16.455Z,1002.95
2022-10-24T01:06:16.790Z,1002.92
2022-10-24T01:07:16.645Z,1002.90
2022-10-24T01:08:16.567Z,1002.87
2022-10-24T01:09:16.585Z,1002.92
2022-10-24T01:10:16.616Z,1002.89
2022-10-24T01:11:16.648Z,1002.85
2022-10-24T01:12:16.673Z,1002.87
2022-10-24T01:13:17.017Z,1002.89
2022-10-24T01:14:16.788Z,1002.86
2022-10-24T01:15:16.775Z,1002.89
2022-10-24T01:16:16.803Z,1002.87
2022-10-24T01:17:16.834Z,1002.84
2022-10-24T01:18:16.865Z,1002.85
2022-10-24T01:19:16.926Z,1002.83
2022-10-24T01:21:17.260Z,1002.80
2022-10-24T01:22:16.999Z,1002.79
2022-10-24T01:23:17.126Z,1002.80
2022-10-24T01:24:17.060Z,1002.75
2022-10-24T01:25:17.093Z,1002.71
2022-10-24T01:26:17.118Z,1002.78
2022-10-24T01:27:17.157Z,1002.74
2022-10-24T01:28:17.436Z,1002.71
2022-10-24T01:29:17.226Z,1002.70
2022-10-24T01:30:17.281Z,1002.68
2022-10-24T01:31:17.276Z,1002.65
2022-10-24T01:32:17.313Z,1002.63
2022-10-24T01:33:17.358Z,1002.62
2022-10-24T01:34:17.384Z,1002.63
2022-10-24T01:35:17.820Z,1002.64
2022-10-24T01:36:17.439Z,1002.66
2022-10-24T01:37:17.469Z,1002.60
2022-10-24T01:39:17.564Z,1002.59
2022-10-24T01:40:17.635Z,1002.56
2022-10-24T01:41:17.618Z,1002.57
2022-10-24T01:42:17.933Z,1002.55
2022-10-24T01:43:17.664Z,1002.51
2022-10-24T01:45:17.779Z,1002.47
2022-10-24T01:46:17.754Z,1002.51
2022-10-24T01:47:17.849Z,1002.43
2022-10-24T01:48:17.832Z,1002.34
2022-10-24T01:49:18.854Z,1002.39
2022-10-24T01:50:17.892Z,1002.38
2022-10-24T01:51:17.952Z,1002.33
2022-10-24T01:52:17.945Z,1002.33
2022-10-24T01:53:20.011Z,1002.33
2022-10-24T01:54:18.005Z,1002.32
2022-10-24T01:55:18.041Z,1002.30
2022-10-24T01:56:18.373Z,1002.27
2022-10-24T01:57:18.144Z,1002.33
2022-10-24T01:59:18.163Z,1002.26
2022-10-24T02:00:18.195Z,1002.29
2022-10-24T02:01:18.393Z,1002.29
2022-10-24T02:02:18.257Z,1002.25
2022-10-24T02:03:18.587Z,1002.27
2022-10-24T02:05:18.355Z,1002.24
2022-10-24T02:07:18.436Z,1002.21
2022-10-24T02:08:18.454Z,1002.23
2022-10-24T02:09:18.484Z,1002.22
2022-10-24T02:10:18.760Z,1002.27
2022-10-24T02:12:18.590Z,1002.20
2022-10-24T02:13:18.623Z,1002.18
2022-10-24T02:14:18.638Z,1002.21
2022-10-24T02:15:18.668Z,1002.19
2022-10-24T02:16:19.000Z,1002.21
2022-10-24T02:17:19.222Z,1002.17
2022-10-24T02:18:18.763Z,1002.23
2022-10-24T02:19:18.809Z,1002.24
2022-10-24T02:20:18.825Z,1002.24
2022-10-24T02:21:18.858Z,1002.19
2022-10-24T02:22:18.890Z,1002.24
2022-10-24T02:23:19.195Z,1002.26
2022-10-24T02:25:18.989Z,1002.21
2022-10-24T02:27:19.051Z,1002.19
2022-10-24T02:28:19.076Z,1002.18
2022-10-24T02:29:19.514Z,1002.17
2022-10-24T02:30:19.156Z,1002.16
2022-10-24T02:31:19.178Z,1002.12
2022-10-24T02:33:21.410Z,1002.11
2022-10-24T02:35:19.602Z,1002.09
2022-10-24T02:36:19.334Z,1002.14
2022-10-24T02:37:19.889Z,1002.09
2022-10-24T02:39:19.445Z,1002.11
2022-10-24T02:40:19.463Z,1002.09
2022-10-24T02:41:19.514Z,1002.12
2022-10-24T02:42:25.002Z,1002.10
2022-10-24T02:43:19.553Z,1002.13
2022-10-24T02:44:19.590Z,1002.04
2022-10-24T02:45:19.611Z,1002.03
2022-10-24T02:46:19.647Z,1002.11
2022-10-24T02:47:20.209Z,1002.09
2022-10-24T02:48:19.708Z,1002.07
2022-10-24T02:49:20.043Z,1002.07
2022-10-24T02:50:19.776Z,1002.09
2022-10-24T02:51:19.808Z,1002.11
2022-10-24T02:52:19.835Z,1002.14
2022-10-24T02:53:19.889Z,1002.11
2022-10-24T02:54:20.002Z,1002.17
2022-10-24T02:55:19.950Z,1002.13
2022-10-24T02:57:20.293Z,1002.12
2022-10-24T02:58:20.028Z,1002.09
2022-10-24T02:59:20.061Z,1002.07
2022-10-24T03:00:20.086Z,1002.13
2022-10-24T03:01:20.270Z,1002.09
2022-10-24T03:02:21.041Z,1002.06
2022-10-24T03:03:20.181Z,1002.09
2022-10-24T03:04:20.516Z,1002.11
2022-10-24T03:05:20.245Z,1002.05
2022-10-24T03:06:20.376Z,1002.02
2022-10-24T03:07:20.717Z,1002.04
2022-10-24T03:08:20.346Z,1002.01
2022-10-24T03:09:20.379Z,1001.98
2022-10-24T03:10:20.404Z,1001.97
2022-10-24T03:11:20.709Z,1001.99
2022-10-24T03:12:20.484Z,1002.00
2022-10-24T03:13:20.497Z,1002.01
2022-10-24T03:14:20.563Z,1002.00
2022-10-24T03:15:20.566Z,1002.00
2022-10-24T03:16:20.601Z,1001.99
2022-10-24T03:17:20.780Z,1002.02
2022-10-24T03:18:20.971Z,1001.99
2022-10-24T03:19:20.689Z,1002.01
2022-10-24T03:20:20.720Z,1002.03
2022-10-24T03:21:20.750Z,1002.04
2022-10-24T03:22:20.786Z,1002.04
2022-10-24T03:24:31.084Z,1002.02
2022-10-24T03:25:20.871Z,1002.02
2022-10-24T03:26:20.934Z,1002.03
2022-10-24T03:27:20.959Z,1001.98
2022-10-24T03:28:21.279Z,1002.02
2022-10-24T03:30:21.338Z,1002.06
2022-10-24T03:31:21.065Z,1002.07
2022-10-24T03:32:21.195Z,1002.04
2022-10-24T03:33:21.181Z,1002.04
2022-10-24T03:34:21.164Z,1002.08
2022-10-24T03:35:23.046Z,1002.05
2022-10-24T03:36:21.529Z,1002.00
2022-10-24T03:37:22.295Z,1002.00
2022-10-24T03:38:21.297Z,1001.99
2022-10-24T03:39:22.134Z,1001.99
2022-10-24T03:40:21.377Z,1002.02
2022-10-24T03:41:21.381Z,1002.00
2022-10-24T03:42:21.666Z,1002.01
2022-10-24T03:43:25.297Z,1002.08
2022-10-24T03:45:21.507Z,1002.06
2022-10-24T03:46:21.538Z,1002.07
2022-10-24T03:47:21.593Z,1002.03
2022-10-24T03:48:22.106Z,1002.05
2022-10-24T03:49:21.753Z,1002.02
2022-10-24T03:50:21.818Z,1002.08
2022-10-24T03:52:21.739Z,1002.01
2022-10-24T03:53:21.758Z,1002.08
2022-10-24T03:54:22.094Z,1002.11
2022-10-24T03:55:22.130Z,1002.08
2022-10-24T03:56:21.958Z,1002.12
2022-10-24T03:58:21.928Z,1002.12
2022-10-24T03:59:21.971Z,1002.13
2022-10-24T04:00:21.983Z,1002.14
2022-10-24T04:01:22.169Z,1002.11
2022-10-24T04:02:22.345Z,1002.13
2022-10-24T04:03:22.178Z,1002.11
2022-10-24T04:04:22.358Z,1002.11
2022-10-24T04:05:22.507Z,1002.05
2022-10-24T04:06:22.175Z,1002.09
2022-10-24T04:07:22.204Z,1002.06
2022-10-24T04:08:22.238Z,1002.00
2022-10-24T04:09:22.571Z,1002.06
2022-10-24T04:10:22.295Z,1002.07
2022-10-24T04:11:22.327Z,1002.06
2022-10-24T04:12:22.358Z,1002.03
2022-10-24T04:13:22.391Z,1002.11
2022-10-24T04:15:22.782Z,1002.10
2022-10-24T04:16:22.486Z,1002.08
2022-10-24T04:17:22.724Z,1002.07
2022-10-24T04:18:23.345Z,1002.11
2022-10-24T04:19:22.581Z,1002.07
2022-10-24T04:20:22.615Z,1002.10
2022-10-24T04:22:22.983Z,1002.02
2022-10-24T04:24:22.741Z,1001.96
2022-10-24T04:25:23.079Z,1002.00
2022-10-24T04:26:22.809Z,1002.05
2022-10-24T04:27:22.882Z,1002.05
2022-10-24T04:28:22.928Z,1002.04
2022-10-24T04:29:23.197Z,1002.06
2022-10-24T04:30:22.928Z,1002.06
2022-10-24T04:31:23.765Z,1002.02
2022-10-24T04:32:23.011Z,1002.07
2022-10-24T04:33:23.130Z,1002.10
2022-10-24T04:35:23.088Z,1002.05
2022-10-24T04:36:23.425Z,1002.09
2022-10-24T04:37:23.150Z,1002.14
2022-10-24T04:38:23.304Z,1002.16
2022-10-24T04:39:23.250Z,1002.10
2022-10-24T04:40:23.246Z,1002.10
2022-10-24T04:41:23.288Z,1002.09
2022-10-24T04:43:23.738Z,1002.09
2022-10-24T04:44:23.396Z,1002.06
2022-10-24T04:45:23.507Z,1002.05
2022-10-24T04:46:23.538Z,1002.09
2022-10-24T04:47:23.488Z,1002.10
2022-10-24T04:48:23.499Z,1002.15
2022-10-24T04:49:23.527Z,1002.14
2022-10-24T04:50:23.868Z,1002.16
2022-10-24T04:51:23.591Z,1002.20
2022-10-24T04:52:23.632Z,1002.16
2022-10-24T04:53:23.660Z,1002.16
2022-10-24T04:54:23.688Z,1002.17
2022-10-24T04:55:23.728Z,1002.14
2022-10-24T04:56:23.877Z,1002.19
2022-10-24T04:57:24.085Z,1002.14
2022-10-24T04:58:23.817Z,1002.15
2022-10-24T04:59:23.891Z,1002.23
2022-10-24T05:00:23.875Z,1002.23
2022-10-24T05:01:23.952Z,1002.23
2022-10-24T05:02:24.016Z,1002.22
2022-10-24T05:03:24.307Z,1002.24
2022-10-24T05:04:24.004Z,1002.24
2022-10-24T05:05:24.037Z,1002.22
2022-10-24T05:06:24.086Z,1002.21
2022-10-24T05:07:24.115Z,1002.22
2022-10-24T05:08:24.246Z,1002.21
2022-10-24T05:09:24.416Z,1002.22
2022-10-24T05:11:24.225Z,1002.27
2022-10-24T05:12:24.258Z,1002.30
2022-10-24T05:13:24.288Z,1002.31
2022-10-24T05:14:24.327Z,1002.32
2022-10-24T05:15:24.662Z,1002.33
2022-10-24T05:16:24.378Z,1002.38
2022-10-24T05:17:24.430Z,1002.35
2022-10-24T05:18:24.444Z,1002.36
2022-10-24T05:19:24.543Z,1002.40
2022-10-24T05:20:24.509Z,1002.43
2022-10-24T05:21:24.546Z,1002.39
2022-10-24T05:22:24.873Z,1002.40
2022-10-24T05:23:24.609Z,1002.40
2022-10-24T05:24:24.641Z,1002.39
2022-10-24T05:25:24.665Z,1002.38
2022-10-24T05:26:24.696Z,1002.38
2022-10-24T05:27:24.809Z,1002.39
2022-10-24T05:28:24.761Z,1002.44
2022-10-24T05:29:25.044Z,1002.44
2022-10-24T05:30:24.837Z,1002.41
2022-10-24T05:31:24.913Z,1002.46
2022-10-24T05:32:24.888Z,1002.47
2022-10-24T05:34:25.115Z,1002.51
2022-10-24T05:35:25.009Z,1002.48
2022-10-24T05:36:25.370Z,1002.54
2022-10-24T05:37:25.092Z,1002.54
2022-10-24T05:38:25.083Z,1002.54
2022-10-24T05:39:25.108Z,1002.54
2022-10-24T05:40:25.152Z,1002.58
2022-10-24T05:41:25.192Z,1002.56
2022-10-24T05:42:25.206Z,1002.55
2022-10-24T05:43:25.587Z,1002.62
2022-10-24T05:44:25.280Z,1002.58
2022-10-24T05:45:25.394Z,1002.59
2022-10-24T05:46:25.329Z,1002.58
2022-10-24T05:47:28.373Z,1002.59
2022-10-24T05:48:25.390Z,1002.57
2022-10-24T05:49:25.428Z,1002.58
2022-10-24T05:50:25.769Z,1002.60
2022-10-24T05:51:25.503Z,1002.60
2022-10-24T05:52:25.524Z,1002.61
2022-10-24T05:53:25.550Z,1002.59
2022-10-24T05:54:30.230Z,1002.60
2022-10-24T05:55:25.610Z,1002.61
2022-10-24T05:56:25.643Z,1002.56
2022-10-24T05:57:25.979Z,1002.55
2022-10-24T05:58:25.705Z,1002.62
2022-10-24T05:59:25.735Z,1002.61
2022-10-24T06:00:25.785Z,1002.59
2022-10-24T06:01:25.854Z,1002.61
2022-10-24T06:02:25.977Z,1002.55
2022-10-24T06:03:25.867Z,1002.56
2022-10-24T06:04:26.195Z,1002.58
2022-10-24T06:05:25.991Z,1002.57
2022-10-24T06:06:25.963Z,1002.57
2022-10-24T06:07:26.021Z,1002.59
2022-10-24T06:08:26.025Z,1002.60
2022-10-24T06:09:26.055Z,1002.65
2022-10-24T06:10:26.094Z,1002.65
2022-10-24T06:11:26.368Z,1002.66
2022-10-24T06:12:26.151Z,1002.72
2022-10-24T06:13:26.227Z,1002.70
2022-10-24T06:14:26.218Z,1002.68
2022-10-24T06:15:26.281Z,1002.73
2022-10-24T06:17:26.608Z,1002.68
2022-10-24T06:18:26.335Z,1002.68
2022-10-24T06:19:26.372Z,1002.73
2022-10-24T06:20:26.403Z,1002.72
2022-10-24T06:21:26.430Z,1002.75
2022-10-24T06:22:26.563Z,1002.77
2022-10-24T06:23:26.826Z,1002.72
2022-10-24T06:24:26.533Z,1002.73
2022-10-24T06:25:26.562Z,1002.80
2022-10-24T06:26:26.691Z,1002.75
2022-10-24T06:27:26.724Z,1002.78
2022-10-24T06:28:26.658Z,1002.74
2022-10-24T06:29:26.996Z,1002.75
2022-10-24T06:30:26.714Z,1002.76
2022-10-24T06:31:26.763Z,1002.74
2022-10-24T06:32:26.787Z,1002.75
2022-10-24T06:33:26.817Z,1002.74
2022-10-24T06:34:26.856Z,1002.76
2022-10-24T06:35:27.176Z,1002.83
2022-10-24T06:36:29.347Z,1002.80
2022-10-24T06:37:26.938Z,1002.80
2022-10-24T06:38:26.972Z,1002.84
2022-10-24T06:39:27.058Z,1002.84
2022-10-24T06:40:27.115Z,1002.87
2022-10-24T06:41:27.066Z,1002.87
2022-10-24T06:42:27.396Z,1002.88
2022-10-24T06:43:27.130Z,1002.89
2022-10-24T06:45:27.189Z,1002.91
2022-10-24T06:46:27.320Z,1002.97
2022-10-24T06:47:27.303Z,1002.88
2022-10-24T06:48:27.295Z,1002.87
2022-10-24T06:49:27.572Z,1002.89
2022-10-24T06:50:27.347Z,1002.89
2022-10-24T06:51:27.386Z,1002.93
2022-10-24T06:52:27.408Z,1002.96
2022-10-24T06:53:27.455Z,1002.92
2022-10-24T06:54:30.154Z,1002.94
2022-10-24T06:55:27.529Z,1002.92
2022-10-24T06:56:27.800Z,1002.98
2022-10-24T06:57:27.623Z,1002.93
2022-10-24T06:58:27.604Z,1003.01
2022-10-24T06:59:27.634Z,1003.02
2022-10-24T07:01:27.825Z,1003.01
2022-10-24T07:02:27.796Z,1002.99
2022-10-24T07:03:28.058Z,1003.05
2022-10-24T07:04:27.789Z,1003.07
2022-10-24T07:05:27.825Z,1003.11
2022-10-24T07:06:27.853Z,1003.17
2022-10-24T07:07:27.884Z,1003.21
2022-10-24T07:08:27.921Z,1003.24
2022-10-24T07:09:28.050Z,1003.24
2022-10-24T07:10:28.293Z,1003.23
2022-10-24T07:12:28.062Z,1003.22
2022-10-24T07:13:28.078Z,1003.21
2022-10-24T07:14:28.424Z,1003.21
2022-10-24T07:15:28.141Z,1003.23
2022-10-24T07:16:28.176Z,1003.28
2022-10-24T07:17:28.450Z,1003.27
2022-10-24T07:19:28.262Z,1003.29
2022-10-24T07:20:28.396Z,1003.19
2022-10-24T07:21:28.331Z,1003.24
2022-10-24T07:22:30.314Z,1003.29
2022-10-24T07:23:28.391Z,1003.30
2022-10-24T07:24:28.675Z,1003.29
2022-10-24T07:25:28.450Z,1003.32
2022-10-24T07:26:28.731Z,1003.32
2022-10-24T07:27:28.515Z,1003.33
2022-10-24T07:28:28.570Z,1003.37
2022-10-24T07:29:28.586Z,1003.36
2022-10-24T07:30:28.712Z,1003.36
2022-10-24T07:31:28.947Z,1003.35
2022-10-24T07:32:28.725Z,1003.40
2022-10-24T07:33:28.707Z,1003.43
2022-10-24T07:34:28.749Z,1003.46
2022-10-24T07:35:28.779Z,1003.50
2022-10-24T07:36:28.805Z,1003.54
2022-10-24T07:37:28.936Z,1003.51
2022-10-24T07:38:29.166Z,1003.53
2022-10-24T07:39:28.898Z,1003.54
2022-10-24T07:40:28.932Z,1003.55
2022-10-24T07:41:28.957Z,1003.55
2022-10-24T07:42:29.004Z,1003.58
2022-10-24T07:43:29.021Z,1003.55
2022-10-24T07:44:29.131Z,1003.58
2022-10-24T07:45:29.336Z,1003.64
2022-10-24T07:46:29.118Z,1003.68
2022-10-24T07:47:29.153Z,1003.68
2022-10-24T07:48:29.189Z,1003.66
2022-10-24T07:49:31.539Z,1003.67
2022-10-24T07:50:29.248Z,1003.70
2022-10-24T07:51:29.277Z,1003.62
2022-10-24T07:52:29.612Z,1003.64
2022-10-24T07:53:29.340Z,1003.56
2022-10-24T07:55:29.418Z,1003.65
2022-10-24T07:56:29.432Z,1003.65
2022-10-24T07:57:29.465Z,1003.64
2022-10-24T07:58:29.499Z,1003.63
2022-10-24T07:59:41.786Z,1003.62
2022-10-24T08:00:29.581Z,1003.61
2022-10-24T08:01:29.704Z,1003.60
2022-10-24T08:02:29.624Z,1003.62
2022-10-24T08:03:29.658Z,1003.67
2022-10-24T08:04:29.689Z,1003.64
2022-10-24T08:05:29.726Z,1003.64
2022-10-24T08:06:30.075Z,1003.64
2022-10-24T08:07:29.788Z,1003.61
2022-10-24T08:08:36.937Z,1003.65
2022-10-24T08:10:29.880Z,1003.62
2022-10-24T08:11:29.939Z,1003.72
2022-10-24T08:12:30.200Z,1003.72
2022-10-24T08:13:29.974Z,1003.70
2022-10-24T08:14:30.013Z,1003.74
2022-10-24T08:15:30.039Z,1003.71
2022-10-24T08:16:30.096Z,1003.69
2022-10-24T08:17:30.100Z,1003.73
2022-10-24T08:18:31.056Z,1003.72
2022-10-24T08:19:30.169Z,1003.81
2022-10-24T08:20:30.205Z,1003.66
2022-10-24T08:21:30.231Z,1003.71
2022-10-24T08:22:30.368Z,1003.75
2022-10-24T08:23:30.301Z,1003.67
2022-10-24T08:24:30.637Z,1003.71
2022-10-24T08:25:30.360Z,1003.65
2022-10-24T08:26:30.391Z,1003.67
2022-10-24T08:27:30.499Z,1003.66
2022-10-24T08:28:30.456Z,1003.67
2022-10-24T08:30:30.816Z,1003.63
2022-10-24T08:31:30.552Z,1003.64
2022-10-24T08:32:30.611Z,1003.62
2022-10-24T08:33:30.615Z,1003.67
2022-10-24T08:34:30.643Z,1003.65
2022-10-24T08:35:30.678Z,1003.61
2022-10-24T08:36:30.721Z,1003.65
2022-10-24T08:37:31.054Z,1003.64
2022-10-24T08:38:30.780Z,1003.65
2022-10-24T08:39:30.802Z,1003.65
2022-10-24T08:40:30.833Z,1003.65
2022-10-24T08:41:30.969Z,1003.65
2022-10-24T08:42:30.916Z,1003.67
2022-10-24T08:43:30.933Z,1003.67
2022-10-24T08:44:31.263Z,1003.69
2022-10-24T08:45:30.994Z,1003.75
2022-10-24T08:46:31.030Z,1003.70
2022-10-24T08:47:31.164Z,1003.68
2022-10-24T08:48:31.151Z,1003.76
2022-10-24T08:49:31.122Z,1003.81
2022-10-24T08:50:31.153Z,1003.75
2022-10-24T08:51:31.488Z,1003.83
2022-10-24T08:52:31.224Z,1003.80
2022-10-24T08:53:31.264Z,1003.89
2022-10-24T08:54:31.286Z,1003.89
2022-10-24T08:55:48.247Z,1003.83
2022-10-24T08:56:31.355Z,1003.87
2022-10-24T08:57:31.382Z,1003.84
2022-10-24T08:58:31.659Z,1003.88
2022-10-24T08:59:31.446Z,1003.83
2022-10-24T09:00:31.473Z,1003.87
2022-10-24T09:01:31.759Z,1003.89
2022-10-24T09:02:31.772Z,1003.89
2022-10-24T09:03:51.203Z,1003.87
2022-10-24T09:04:31.626Z,1003.85
2022-10-24T09:05:31.886Z,1003.89
2022-10-24T09:06:31.667Z,1003.88
2022-10-24T09:07:31.708Z,1003.90
2022-10-24T09:08:31.732Z,1003.90
2022-10-24T09:09:31.766Z,1003.85
2022-10-24T09:10:31.795Z,1003.85
2022-10-24T09:11:31.829Z,1003.75
2022-10-24T09:12:32.164Z,1003.85
2022-10-24T09:13:31.897Z,1003.87
2022-10-24T09:14:31.926Z,1003.80
2022-10-24T09:15:31.957Z,1003.86
2022-10-24T09:16:31.990Z,1003.89
2022-10-24T09:17:32.069Z,1003.91
2022-10-24T09:18:32.054Z,1003.98
2022-10-24T09:19:32.500Z,1003.98
2022-10-24T09:20:32.140Z,1003.90
2022-10-24T09:21:32.252Z,1003.98
2022-10-24T09:22:32.182Z,1004.00
2022-10-24T09:23:32.219Z,1004.02
2022-10-24T09:24:32.246Z,1003.99
2022-10-24T09:26:32.615Z,1004.03
2022-10-24T09:27:32.345Z,1004.00
2022-10-24T09:28:32.382Z,1004.03
2022-10-24T09:29:32.416Z,1003.95
2022-10-24T09:30:33.404Z,1003.91
2022-10-24T09:31:32.475Z,1003.90
2022-10-24T09:32:32.829Z,1003.98
2022-10-24T09:33:32.544Z,1004.11
2022-10-24T09:34:32.576Z,1004.11
2022-10-24T09:35:32.603Z,1004.00
2022-10-24T09:36:32.761Z,1004.04
2022-10-24T09:37:37.574Z,1004.04
2022-10-24T09:38:32.704Z,1004.07
2022-10-24T09:39:32.840Z,1004.03
2022-10-24T09:40:32.773Z,1004.06
2022-10-24T09:41:32.818Z,1004.08
2022-10-24T09:42:32.841Z,1003.99
2022-10-24T09:43:32.867Z,1004.06
2022-10-24T09:44:33.203Z,1004.03
2022-10-24T09:45:32.953Z,1004.07
2022-10-24T09:46:32.965Z,1004.12
2022-10-24T09:47:32.997Z,1004.11
2022-10-24T09:48:33.030Z,1004.11
2022-10-24T09:49:33.062Z,1004.15
2022-10-24T09:50:33.099Z,1004.14
2022-10-24T09:51:33.436Z,1004.25
2022-10-24T09:52:33.191Z,1004.23
2022-10-24T09:53:33.291Z,1004.29
2022-10-24T09:54:33.225Z,1004.20
2022-10-24T09:55:33.255Z,1004.20
2022-10-24T09:56:33.288Z,1004.27
2022-10-24T09:57:33.348Z,1004.33
2022-10-24T09:58:33.665Z,1004.25
2022-10-24T10:00:33.450Z,1004.41
2022-10-24T10:01:33.546Z,1004.42
2022-10-24T10:02:33.485Z,1004.41
2022-10-24T10:03:33.520Z,1004.34
2022-10-24T10:04:33.546Z,1004.39
2022-10-24T10:05:33.887Z,1004.41
2022-10-24T10:06:33.618Z,1004.43
2022-10-24T10:07:33.649Z,1004.51
2022-10-24T10:08:33.703Z,1004.42
2022-10-24T10:09:33.715Z,1004.44
2022-10-24T10:10:33.744Z,1004.45
2022-10-24T10:11:37.625Z,1004.41
2022-10-24T10:13:34.099Z,1004.43
2022-10-24T10:14:33.878Z,1004.42
2022-10-24T10:16:33.953Z,1004.40
2022-10-24T10:17:33.974Z,1004.43
2022-10-24T10:18:34.011Z,1004.34
2022-10-24T10:19:34.043Z,1004.46
2022-10-24T10:20:34.475Z,1004.40
2022-10-24T10:21:34.105Z,1004.40
2022-10-24T10:22:34.136Z,1004.40
2022-10-24T10:23:34.175Z,1004.47
2022-10-24T10:24:34.229Z,1004.47
2022-10-24T10:25:34.289Z,1004.44
2022-10-24T10:26:34.277Z,1004.52
2022-10-24T10:27:34.662Z,1004.52
2022-10-24T10:28:35.226Z,1004.51
2022-10-24T10:29:35.372Z,1004.55
2022-10-24T10:30:34.465Z,1004.55
2022-10-24T10:32:34.471Z,1004.53
2022-10-24T10:33:34.495Z,1004.48
2022-10-24T10:35:34.816Z,1004.56
2022-10-24T10:36:34.651Z,1004.57
2022-10-24T10:37:34.631Z,1004.59
2022-10-24T10:38:34.664Z,1004.68
2022-10-24T10:39:34.696Z,1004.68
2022-10-24T10:40:34.752Z,1004.66
2022-10-24T10:41:34.758Z,1004.73
2022-10-24T10:42:35.090Z,1004.69
2022-10-24T10:43:34.825Z,1004.66
2022-10-24T10:44:34.857Z,1004.75
2022-10-24T10:45:34.892Z,1004.82
2022-10-24T10:46:34.933Z,1004.79
2022-10-24T10:47:34.956Z,1004.76
2022-10-24T10:48:34.987Z,1004.79
2022-10-24T10:49:35.322Z,1004.78
2022-10-24T10:50:35.051Z,1004.81
2022-10-24T10:51:35.098Z,1004.75
2022-10-24T10:52:35.124Z,1004.79
2022-10-24T10:53:35.152Z,1004.83
2022-10-24T10:54:35.183Z,1004.77
2022-10-24T10:55:35.218Z,1004.69
2022-10-24T10:56:35.526Z,1004.78
2022-10-24T10:57:35.280Z,1004.82
2022-10-24T10:59:35.345Z,1004.87
2022-10-24T11:00:35.381Z,1004.82
2022-10-24T11:01:35.501Z,1004.89
2022-10-24T11:02:35.572Z,1004.88
2022-10-24T11:04:35.762Z,1004.87
2022-10-24T11:05:35.545Z,1004.92
2022-10-24T11:06:35.580Z,1004.88
2022-10-24T11:07:35.610Z,1004.96
2022-10-24T11:08:35.643Z,1005.00
2022-10-24T11:09:35.680Z,1005.02
2022-10-24T11:10:35.711Z,1005.00
2022-10-24T11:11:36.000Z,1005.01
2022-10-24T11:12:35.801Z,1004.91
2022-10-24T11:13:35.810Z,1005.00
2022-10-24T11:14:35.839Z,1005.02
2022-10-24T11:15:35.878Z,1004.97
2022-10-24T11:16:35.909Z,1005.00
2022-10-24T11:17:35.947Z,1004.98
2022-10-24T11:18:36.228Z,1004.99
2022-10-24T11:19:36.012Z,1005.03
2022-10-24T11:20:36.041Z,1005.13
2022-10-24T11:21:36.072Z,1005.09
2022-10-24T11:22:36.225Z,1005.09
2022-10-24T11:23:36.165Z,1005.08
2022-10-24T11:24:36.173Z,1005.08
2022-10-24T11:25:36.461Z,1005.03
2022-10-24T11:26:36.235Z,1005.03
2022-10-24T11:27:36.275Z,1005.01
2022-10-24T11:28:36.321Z,1005.07
2022-10-24T11:29:36.336Z,1005.06
2022-10-24T11:30:41.580Z,1005.07
2022-10-24T11:32:36.838Z,1005.12
2022-10-24T11:33:36.480Z,1005.13
2022-10-24T11:35:36.544Z,1005.17
2022-10-24T11:36:36.587Z,1005.19
2022-10-24T11:37:36.601Z,1005.09
2022-10-24T11:38:36.632Z,1005.16
2022-10-24T11:39:37.069Z,1005.06
2022-10-24T11:40:36.706Z,1005.11
2022-10-24T11:41:36.732Z,1005.15
2022-10-24T11:42:36.767Z,1005.11
2022-10-24T11:43:36.799Z,1005.16
2022-10-24T11:44:36.857Z,1005.08
2022-10-24T11:45:36.866Z,1005.19
2022-10-24T11:46:37.195Z,1005.16
2022-10-24T11:47:36.943Z,1005.12
2022-10-24T11:48:37.036Z,1005.14
2022-10-24T11:49:36.999Z,1005.13
2022-10-24T11:50:37.080Z,1005.15
2022-10-24T11:51:37.067Z,1005.21
2022-10-24T11:52:37.108Z,1005.19
2022-10-24T11:54:37.564Z,1005.22
2022-10-24T11:55:37.194Z,1005.25
2022-10-24T11:56:37.229Z,1005.17
2022-10-24T11:57:37.265Z,1005.11
2022-10-24T11:58:37.298Z,1005.16
2022-10-24T11:59:40.954Z,1005.21
2022-10-24T12:00:37.406Z,1005.25
2022-10-24T12:01:37.758Z,1005.23
2022-10-24T12:02:37.508Z,1005.30
2022-10-24T12:03:37.457Z,1005.30
2022-10-24T12:04:37.492Z,1005.27
2022-10-24T12:05:37.527Z,1005.30
2022-10-24T12:06:37.683Z,1005.25
2022-10-24T12:07:37.689Z,1005.24
2022-10-24T12:08:37.930Z,1005.18
2022-10-24T12:09:37.755Z,1005.30
2022-10-24T12:11:37.786Z,1005.21
2022-10-24T12:12:37.761Z,1005.24
2022-10-24T12:13:37.904Z,1005.16
2022-10-24T12:14:37.823Z,1005.18
2022-10-24T12:15:40.614Z,1005.09
2022-10-24T12:16:37.912Z,1005.19
2022-10-24T12:17:38.003Z,1005.18
2022-10-24T12:18:38.053Z,1005.29
2022-10-24T12:19:37.995Z,1005.21
2022-10-24T12:22:38.666Z,1005.15
2022-10-24T12:23:38.176Z,1005.16
2022-10-24T12:24:38.157Z,1005.29
2022-10-24T12:25:38.283Z,1005.27
2022-10-24T12:26:38.346Z,1005.24
2022-10-24T12:27:38.255Z,1005.21
2022-10-24T12:28:38.427Z,1005.28
2022-10-24T12:29:38.665Z,1005.24
2022-10-24T12:30:38.470Z,1005.29
2022-10-24T12:31:38.391Z,1005.23
2022-10-24T12:32:38.442Z,1005.29
2022-10-24T12:33:38.571Z,1005.33
2022-10-24T12:34:40.087Z,1005.36
2022-10-24T12:35:38.769Z,1005.31
2022-10-24T12:36:40.340Z,1005.30
2022-10-24T12:37:42.090Z,1005.28
2022-10-24T12:38:38.612Z,1005.28
2022-10-24T12:39:38.705Z,1005.25
2022-10-24T12:40:38.687Z,1005.26
2022-10-24T12:41:39.017Z,1005.31
2022-10-24T12:42:38.753Z,1005.33
2022-10-24T12:43:38.799Z,1005.32
2022-10-24T12:44:38.916Z,1005.35
2022-10-24T12:45:38.847Z,1005.37
2022-10-24T12:46:39.483Z,1005.40
2022-10-24T12:47:39.300Z,1005.34
2022-10-24T12:48:39.016Z,1005.36
2022-10-24T12:49:38.990Z,1005.36
2022-10-24T12:50:39.021Z,1005.38
2022-10-24T12:51:39.055Z,1005.32
2022-10-24T12:53:39.783Z,1005.30
2022-10-24T12:54:39.170Z,1005.33
2022-10-24T12:56:40.480Z,1005.33
2022-10-24T12:57:39.248Z,1005.26
2022-10-24T12:59:39.568Z,1005.31
2022-10-24T13:00:39.373Z,1005.27
2022-10-24T13:02:39.641Z,1005.32